Terminal Aerodrome Forecast
Issued by NWS Wakefield, VA

Home | Current Version | Previous Version | Text Only | Print | Product List | Glossary On
Versions: 1 2 3 4 5 6 7 8 9 10 11 12
000
FTUS41 KAKQ 010500
TAFECG
TAF
KECG 010523Z 0106/0206 13005KT P6SM BKN120 OVC250
     FM011200 07006KT P6SM SCT025 BKN050
     FM011800 08012KT P6SM BKN050
     FM020000 09006KT P6SM OVC035=

USA.gov is the U.S. government's official web portal to all federal, state and local government web resources and services.